Terminal Aerodrome Forecast
Issued by NWS Louisville, KY

Home | Current Version | Previous Version | Text Only | Print | Product List | Glossary On
Versions: 1 2 3 4 5 6 7 8 9 10 11 12 13 14 15
000
FTUS43 KLMK 281700
TAFSDF
TAF
KSDF 281726Z 2818/0124 07007KT P6SM SCT025 BKN040
     FM010300 09005KT 4SM -SN BKN018
     FM010500 10005KT 3SM -FZRAPL BR BKN012
     FM011000 12005KT 3SM -FZRA BR OVC009
     FM011300 14005KT 5SM -RA BR OVC009=

USA.gov is the U.S. government's official web portal to all federal, state and local government web resources and services.